Airfield :
LOGIN :

Register | Disclaimer

   EN    FR    IT 

 










Legend :    VFR   Marginal VFR   IFR   Intensive IFR   Very Intensive IFR
Visi :
Ceiling :
>= 8 km
>= 3000ft
5 to 8 km
1000 to 3000 ft
1500m to 5 km
500 to 1000 ft
800 to 1500m
200 to 500 ft
< 800m
< 200 ft
Symbols :   Thunderstorms  Fog  Heavy snow  Heavy precipitations  Wind > 20 kt
SIGMETs :     Misc.  Thunderstorms  Icing  Turbulence  Mountain Waves  Volcanic Ashes







- Airport Elevation : 1197 ft
- IATA code : SPM


ETAD - Spangdahlem Ab

CURRENT METAR :
  • 191658Z AUTO 31011KT 9999 BKN029 BKN042 14/07 A3010 RMK AO2 SLP185 T01350073 TSNO

EXPIRED METARs :
  • 191648Z AUTO 32005KT 9999 BKN029 BKN043 14/08 A3010 RMK AO2 CIG 029V044 BKN029 V SCT SLP184 TSNO
  • 191633Z AUTO 32008KT 9999 SCT028 BKN038 BKN070 14/08 A3009 RMK AO2 SLP180 TSNO
  • 191628Z AUTO 30005KT 9999 SCT028 SCT039 BKN070 14/08 A3009 RMK AO2 SLP180 TSNO
  • 191558Z AUTO 27008KT 9999 FEW031 15/08 A3008 RMK AO2 SLP177 T01450079 TSNO
  • 191458Z AUTO 30007KT 9999 FEW070 SCT210 14/08 A3007 RMK AO2 SLP173 60000 T01430075 52005 TSNO

TAF TAF ETAD
Valid from the 19 at 11:00 until the 20 at 17:00 UTC


191107Z 1911/2017 30009KT 9999 BKN020 BKN045 QNH3002INS
BECMG 1918/1919 30006KT 9999 BKN010 QNH3012INS
BECMG 2001/2002 26006KT 5000 BR BKN008 QNH3016INS
BECMG 2002/2003 26006KT 2400 BR BKN008 QNH3016INS
BECMG 2007/2008 27006KT 5000 BR BKN010 QNH3018INS TX14/1913Z TN05/2003Z
No reported NOTAMs for that airfield.



MET'MAP, your aeronautical weather chart ! - Copyright ORBIFLY December 2007 - Disclaimer

ORBIFLY MET'MAP TEAM :

Programming & Development : Alexandra Zaïnal
Concept & Development : Baudouin d'Aumeries
Co-Development & Prog : Marc-Olivier Méhu
Technical & hardware support : Manuel Goepfert

Contact : metmap@orbifly.com




SOURCES & CREDITS :

   NOAA